createdAt,value
2018-08-18T00:02:22.631Z,3.60
2018-08-18T00:04:49.919Z,5.07
2018-08-18T00:07:17.130Z,4.07
2018-08-18T00:09:44.359Z,3.53
2018-08-18T00:12:17.306Z,7.77
2018-08-18T00:14:44.575Z,4.20
2018-08-18T00:17:12.667Z,7.10
2018-08-18T00:22:30.520Z,4.37
2018-08-18T00:24:58.733Z,3.83
2018-08-18T00:27:26.588Z,4.60
2018-08-18T00:29:58.387Z,4.10
2018-08-18T00:32:25.606Z,5.60
2018-08-18T00:34:53.799Z,4.10
2018-08-18T00:37:22.242Z,5.43
2018-08-18T00:39:49.518Z,5.73
2018-08-18T00:42:16.731Z,6.13
2018-08-18T00:44:43.946Z,4.03
2018-08-18T00:47:11.229Z,4.00
2018-08-18T00:49:38.448Z,5.10
2018-08-18T00:52:05.875Z,4.00
2018-08-18T00:54:33.127Z,3.87
2018-08-18T00:57:03.371Z,4.23
2018-08-18T00:59:37.092Z,3.97
2018-08-18T01:02:04.448Z,5.00
2018-08-18T01:04:32.145Z,8.57
2018-08-18T01:06:59.403Z,5.57
2018-08-18T01:09:27.650Z,5.17
2018-08-18T01:11:54.914Z,4.33
2018-08-18T01:14:22.268Z,4.23
2018-08-18T01:16:51.690Z,4.53
2018-08-18T01:19:19.933Z,3.67
2018-08-18T01:22:01.870Z,7.70
2018-08-18T01:24:29.103Z,4.03
2018-08-18T01:26:56.745Z,4.10
2018-08-18T01:29:23.979Z,5.17
2018-08-18T01:31:51.212Z,6.60
2018-08-18T01:34:18.461Z,14.97
2018-08-18T01:36:45.705Z,4.50
2018-08-18T01:39:13.993Z,4.07
2018-08-18T01:41:41.246Z,4.90
2018-08-18T01:44:13.914Z,7.30
2018-08-18T01:46:41.772Z,3.90
2018-08-18T01:49:33.630Z,3.60
2018-08-18T01:52:03.043Z,3.50
2018-08-18T01:54:30.579Z,5.30
2018-08-18T01:57:03.502Z,4.20
2018-08-18T01:59:30.759Z,3.93
2018-08-18T02:01:58.038Z,4.33
2018-08-18T02:04:25.245Z,4.23
2018-08-18T02:06:53.486Z,6.47
2018-08-18T02:09:20.728Z,4.50
2018-08-18T02:11:51.566Z,4.90
2018-08-18T02:14:20.254Z,4.97
2018-08-18T02:16:48.632Z,5.47
2018-08-18T02:19:16.903Z,5.13
2018-08-18T02:21:44.126Z,4.57
2018-08-18T02:24:12.490Z,4.57
2018-08-18T02:26:39.948Z,5.43
2018-08-18T02:29:07.162Z,5.10
2018-08-18T02:31:34.388Z,4.33
2018-08-18T02:34:01.584Z,5.87
2018-08-18T02:36:28.916Z,3.77
2018-08-18T02:38:57.288Z,5.83
2018-08-18T02:41:25.784Z,8.83
2018-08-18T02:43:53.516Z,5.20
2018-08-18T02:46:28.202Z,3.37
2018-08-18T02:48:55.418Z,3.77
2018-08-18T02:51:22.674Z,4.20
2018-08-18T02:53:49.939Z,4.33
2018-08-18T02:56:17.170Z,4.10
2018-08-18T02:58:48.951Z,5.60
2018-08-18T03:01:16.186Z,4.93
2018-08-18T03:03:43.386Z,4.33
2018-08-18T03:06:11.480Z,4.80
2018-08-18T03:08:38.811Z,4.97
2018-08-18T03:11:06.401Z,4.17
2018-08-18T03:13:33.644Z,4.50
2018-08-18T03:16:02.259Z,4.90
2018-08-18T03:18:35.848Z,4.00
2018-08-18T03:21:04.135Z,4.10
2018-08-18T03:23:32.943Z,4.23
2018-08-18T03:26:00.198Z,4.53
2018-08-18T03:28:27.434Z,4.50
2018-08-18T03:30:55.315Z,4.37
2018-08-18T03:33:22.573Z,4.53
2018-08-18T03:35:49.773Z,4.23
2018-08-18T03:38:17.068Z,4.60
2018-08-18T03:40:44.309Z,5.20
2018-08-18T03:43:11.524Z,5.00
2018-08-18T03:45:38.726Z,5.17
2018-08-18T03:48:05.942Z,4.20
2018-08-18T03:50:45.638Z,4.23
2018-08-18T03:53:15.674Z,4.07
2018-08-18T03:55:43.092Z,5.00
2018-08-18T03:58:10.338Z,4.67
2018-08-18T04:00:37.987Z,4.20
2018-08-18T04:03:05.230Z,4.60
2018-08-18T04:05:32.422Z,5.33
2018-08-18T04:07:59.654Z,4.93
2018-08-18T04:10:26.892Z,4.83
2018-08-18T04:12:54.143Z,5.93
2018-08-18T04:15:21.352Z,7.07
2018-08-18T04:17:48.605Z,5.57
2018-08-18T04:20:15.847Z,5.40
2018-08-18T04:22:43.439Z,6.03
2018-08-18T04:25:10.690Z,6.43
2018-08-18T04:27:39.717Z,7.60
2018-08-18T04:30:11.874Z,6.93
2018-08-18T04:33:04.306Z,5.77
2018-08-18T04:35:32.310Z,6.43
2018-08-18T04:38:01.411Z,6.83
2018-08-18T04:40:28.717Z,6.03
2018-08-18T04:42:56.922Z,5.90
2018-08-18T04:45:24.176Z,9.30
2018-08-18T04:47:51.451Z,5.50
2018-08-18T04:50:19.289Z,9.17
2018-08-18T04:52:46.520Z,6.63
2018-08-18T04:55:14.593Z,6.73
2018-08-18T04:57:41.810Z,6.10
2018-08-18T05:00:10.567Z,7.97
2018-08-18T05:02:42.755Z,6.50
2018-08-18T05:05:10.416Z,8.20
2018-08-18T05:07:43.840Z,5.40
2018-08-18T05:10:11.575Z,5.73
2018-08-18T05:12:38.812Z,9.70
2018-08-18T05:15:06.109Z,5.63
2018-08-18T05:17:33.400Z,6.23
2018-08-18T05:20:14.209Z,7.67
2018-08-18T05:22:41.866Z,7.37
2018-08-18T05:25:09.118Z,7.40
2018-08-18T05:27:36.395Z,6.10
2018-08-18T05:30:04.171Z,6.47
2018-08-18T05:32:31.401Z,5.97
2018-08-18T05:34:58.681Z,6.93
2018-08-18T05:37:25.871Z,8.00
2018-08-18T05:39:53.106Z,10.13
2018-08-18T05:42:20.346Z,6.53
2018-08-18T05:44:47.598Z,9.03
2018-08-18T05:47:15.071Z,8.43
2018-08-18T05:49:42.306Z,8.27
2018-08-18T05:52:09.569Z,7.33
2018-08-18T05:54:36.836Z,6.07
2018-08-18T05:57:05.190Z,6.90
2018-08-18T05:59:33.930Z,6.60
2018-08-18T06:02:01.229Z,7.03
2018-08-18T06:04:28.462Z,7.60
2018-08-18T06:06:55.690Z,6.83
2018-08-18T06:09:23.326Z,7.37
2018-08-18T06:11:50.627Z,6.77
2018-08-18T06:14:18.351Z,7.17
2018-08-18T06:16:46.080Z,8.03
2018-08-18T06:19:13.426Z,8.00
2018-08-18T06:21:40.739Z,7.73
2018-08-18T06:24:08.110Z,8.80
2018-08-18T06:26:35.542Z,6.47
2018-08-18T06:29:02.857Z,14.27
2018-08-18T06:31:30.136Z,7.50
2018-08-18T06:33:57.406Z,7.50
2018-08-18T06:36:24.759Z,6.67
2018-08-18T06:38:51.987Z,7.40
2018-08-18T06:41:19.276Z,6.83
2018-08-18T06:43:46.503Z,6.27
2018-08-18T06:46:13.807Z,6.70
2018-08-18T06:48:41.030Z,8.93
2018-08-18T06:51:08.286Z,11.93
2018-08-18T06:53:41.279Z,10.67
2018-08-18T06:56:09.009Z,7.87
2018-08-18T06:58:36.536Z,7.83
2018-08-18T07:01:04.117Z,7.80
2018-08-18T07:03:32.948Z,8.23
2018-08-18T07:06:00.487Z,9.63
2018-08-18T07:08:28.114Z,9.03
2018-08-18T07:10:55.370Z,8.00
2018-08-18T07:13:22.602Z,10.77
2018-08-18T07:15:50.252Z,6.90
2018-08-18T07:18:17.563Z,8.33
2018-08-18T07:20:44.796Z,8.57
2018-08-18T07:23:12.042Z,10.57
2018-08-18T07:25:46.068Z,8.07
2018-08-18T07:28:13.387Z,9.93
2018-08-18T07:30:40.619Z,7.13
2018-08-18T07:33:07.878Z,8.47
2018-08-18T07:35:35.144Z,8.40
2018-08-18T07:38:02.463Z,8.77
2018-08-18T07:40:35.363Z,8.05
2018-08-18T07:43:05.790Z,7.62
2018-08-18T07:45:34.532Z,11.85
2018-08-18T07:48:03.895Z,7.75
2018-08-18T07:50:31.627Z,7.80
2018-08-18T07:52:59.179Z,8.28
2018-08-18T07:55:30.764Z,6.67
2018-08-18T07:57:59.447Z,7.67
2018-08-18T08:00:30.598Z,6.10
2018-08-18T08:02:58.830Z,8.43
2018-08-18T08:05:26.077Z,8.05
2018-08-18T08:07:53.364Z,6.35
2018-08-18T08:10:21.008Z,7.45
2018-08-18T08:12:48.459Z,7.47
2018-08-18T08:15:16.054Z,6.70
2018-08-18T08:17:44.035Z,6.47
2018-08-18T08:20:11.475Z,6.97
2018-08-18T08:22:38.760Z,7.65
2018-08-18T08:25:07.048Z,7.62
2018-08-18T08:27:34.322Z,6.33
2018-08-18T08:30:01.558Z,7.55
2018-08-18T08:32:28.793Z,8.18
2018-08-18T08:34:56.071Z,7.55
2018-08-18T08:37:23.384Z,6.95
2018-08-18T08:39:50.604Z,9.83
2018-08-18T08:42:17.858Z,7.17
2018-08-18T08:44:45.087Z,7.97
2018-08-18T08:47:14.255Z,12.45
2018-08-18T08:49:41.550Z,8.20
2018-08-18T08:52:08.827Z,8.58
2018-08-18T08:54:37.319Z,7.83
2018-08-18T08:57:07.092Z,7.00
2018-08-18T08:59:35.579Z,10.98
2018-08-18T09:02:03.174Z,7.62
2018-08-18T09:04:30.977Z,7.92
2018-08-18T09:06:58.267Z,10.90
2018-08-18T09:09:25.838Z,9.83
2018-08-18T09:11:53.207Z,9.15
2018-08-18T09:14:20.691Z,11.45
2018-08-18T09:16:47.980Z,11.45
2018-08-18T09:19:15.337Z,8.78
2018-08-18T09:21:49.290Z,11.25
2018-08-18T09:24:16.551Z,9.75
2018-08-18T09:26:49.444Z,12.03
2018-08-18T09:29:16.694Z,14.60
2018-08-18T09:31:44.650Z,8.88
2018-08-18T09:34:12.149Z,9.00
2018-08-18T09:36:39.915Z,11.08
2018-08-18T09:39:09.135Z,12.05
2018-08-18T09:41:37.242Z,9.55
2018-08-18T09:44:04.505Z,10.88
2018-08-18T09:46:31.785Z,10.00
2018-08-18T09:48:59.125Z,12.30
2018-08-18T09:51:26.336Z,10.80
2018-08-18T09:53:53.691Z,11.97
2018-08-18T09:56:20.943Z,11.45
2018-08-18T09:58:48.175Z,10.98
2018-08-18T10:01:15.434Z,14.85
2018-08-18T10:03:42.659Z,12.80
2018-08-18T10:06:09.916Z,10.30
2018-08-18T10:08:37.162Z,9.88
2018-08-18T10:11:04.507Z,10.18
2018-08-18T10:13:31.734Z,14.15
2018-08-18T10:15:59.054Z,13.88
2018-08-18T10:18:27.850Z,12.28
2018-08-18T10:20:55.067Z,14.00
2018-08-18T10:23:22.313Z,13.38
2018-08-18T10:25:49.548Z,13.78
2018-08-18T10:28:17.478Z,15.13
2018-08-18T10:30:44.711Z,15.18
2018-08-18T10:33:11.971Z,12.68
2018-08-18T10:35:39.240Z,17.25
2018-08-18T10:38:06.600Z,12.75
2018-08-18T10:40:33.862Z,12.03
2018-08-18T10:43:03.131Z,11.18
2018-08-18T10:45:30.354Z,11.45
2018-08-18T10:47:57.615Z,13.93
2018-08-18T10:51:38.618Z,12.60
2018-08-18T10:54:05.988Z,12.50
2018-08-18T10:56:33.982Z,14.47
2018-08-18T10:59:16.407Z,11.85
2018-08-18T11:01:59.360Z,15.53
2018-08-18T11:04:28.443Z,10.50
2018-08-18T11:06:57.256Z,15.98
2018-08-18T11:09:25.109Z,11.97
2018-08-18T11:11:52.582Z,13.88
2018-08-18T11:14:20.266Z,13.10
2018-08-18T11:16:47.574Z,12.33
2018-08-18T11:19:14.827Z,13.50
2018-08-18T11:21:42.104Z,12.30
2018-08-18T11:24:09.366Z,12.95
2018-08-18T11:26:38.453Z,15.10
2018-08-18T11:29:15.268Z,15.95
2018-08-18T11:31:42.690Z,13.13
2018-08-18T11:34:09.964Z,14.63
2018-08-18T11:36:41.882Z,12.43
2018-08-18T11:39:09.171Z,11.22
2018-08-18T11:41:36.443Z,11.30
2018-08-18T11:44:03.740Z,13.65
2018-08-18T11:46:35.516Z,11.75
2018-08-18T11:49:03.170Z,13.53
2018-08-18T11:51:35.224Z,13.65
2018-08-18T11:54:05.554Z,13.13
2018-08-18T11:56:38.052Z,13.18
2018-08-18T11:59:08.717Z,11.45
2018-08-18T12:01:39.313Z,12.10
2018-08-18T12:04:06.844Z,13.28
2018-08-18T12:06:34.195Z,10.75
2018-08-18T12:09:02.158Z,11.60
2018-08-18T12:11:29.914Z,12.80
2018-08-18T12:13:57.718Z,10.70
2018-08-18T12:16:25.007Z,12.15
2018-08-18T12:18:54.359Z,12.73
2018-08-18T12:21:21.639Z,10.60
2018-08-18T12:23:48.911Z,13.88
2018-08-18T12:26:19.272Z,12.45
2018-08-18T12:28:47.722Z,15.55
2018-08-18T12:31:17.872Z,11.65
2018-08-18T12:33:45.760Z,12.03
2018-08-18T12:36:13.080Z,11.40
2018-08-18T12:38:43.972Z,16.20
2018-08-18T12:41:11.322Z,10.43
2018-08-18T12:43:39.830Z,12.18
2018-08-18T12:46:10.214Z,12.80
2018-08-18T12:48:40.498Z,10.55
2018-08-18T12:51:09.287Z,14.35
2018-08-18T12:53:42.304Z,10.15
2018-08-18T12:56:11.545Z,14.03
2018-08-18T12:58:39.094Z,11.48
2018-08-18T13:01:06.175Z,11.25
2018-08-18T13:03:33.414Z,12.88
2018-08-18T13:06:00.739Z,14.45
2018-08-18T13:08:27.986Z,11.43
2018-08-18T13:10:55.578Z,13.08
2018-08-18T13:13:23.050Z,12.15
2018-08-18T13:15:51.239Z,15.40
2018-08-18T13:18:18.690Z,10.32
2018-08-18T13:20:47.712Z,10.60
2018-08-18T13:23:16.944Z,13.30
2018-08-18T13:25:44.187Z,10.75
2018-08-18T13:28:11.442Z,12.55
2018-08-18T13:30:38.691Z,10.88
2018-08-18T13:33:05.972Z,9.40
2018-08-18T13:35:33.239Z,10.88
2018-08-18T13:38:00.467Z,9.73
2018-08-18T13:40:28.297Z,10.45
2018-08-18T13:42:55.506Z,10.45
2018-08-18T13:45:46.511Z,12.10
2018-08-18T13:48:13.778Z,9.73
2018-08-18T13:50:41.465Z,10.50
2018-08-18T13:53:08.783Z,12.37
2018-08-18T13:55:37.765Z,13.45
2018-08-18T13:58:05.451Z,11.85
2018-08-18T14:00:32.716Z,12.53
2018-08-18T14:03:00.154Z,10.72
2018-08-18T14:05:28.731Z,11.78
2018-08-18T14:07:59.385Z,9.20
2018-08-18T14:10:26.606Z,9.15
2018-08-18T14:12:54.876Z,11.38
2018-08-18T14:15:22.240Z,9.85
2018-08-18T14:17:59.452Z,9.48
2018-08-18T14:20:26.714Z,10.53
2018-08-18T14:22:58.796Z,11.80
2018-08-18T14:25:26.012Z,9.85
2018-08-18T14:27:58.975Z,11.03
2018-08-18T14:30:26.240Z,10.30
2018-08-18T14:32:53.464Z,12.93
2018-08-18T14:35:20.674Z,11.25
2018-08-18T14:37:47.944Z,9.28
2018-08-18T14:40:16.644Z,16.73
2018-08-18T14:42:44.332Z,9.15
2018-08-18T14:45:14.107Z,8.93
2018-08-18T14:47:41.412Z,7.75
2018-08-18T14:50:21.023Z,8.38
2018-08-18T14:52:48.295Z,8.30
2018-08-18T14:55:15.916Z,9.53
2018-08-18T14:57:48.926Z,11.40
2018-08-18T15:00:16.164Z,10.58
2018-08-18T15:02:43.428Z,9.13
2018-08-18T15:05:10.677Z,12.03
2018-08-18T15:07:43.410Z,10.03
2018-08-18T15:10:20.937Z,12.98
2018-08-18T15:12:48.246Z,10.88
2018-08-18T15:15:15.474Z,9.63
2018-08-18T15:17:42.754Z,10.40
2018-08-18T15:20:09.971Z,8.78
2018-08-18T15:22:37.212Z,9.80
2018-08-18T15:25:04.474Z,12.28
2018-08-18T15:27:31.708Z,11.83
2018-08-18T15:29:58.918Z,9.20
2018-08-18T15:32:26.740Z,8.23
2018-08-18T15:34:53.942Z,9.80
2018-08-18T15:37:21.163Z,10.23
2018-08-18T15:39:48.383Z,9.00
2018-08-18T15:42:15.639Z,8.33
2018-08-18T15:44:55.417Z,8.88
2018-08-18T15:47:22.671Z,8.65
2018-08-18T15:49:49.890Z,8.68
2018-08-18T15:52:18.156Z,11.57
2018-08-18T15:54:45.435Z,8.15
2018-08-18T15:57:12.671Z,8.48
2018-08-18T15:59:39.943Z,8.10
2018-08-18T16:02:07.224Z,8.10
2018-08-18T16:04:34.446Z,9.25
2018-08-18T16:07:01.671Z,8.30
2018-08-18T16:09:28.911Z,9.08
2018-08-18T16:11:56.112Z,8.95
2018-08-18T16:14:23.349Z,7.50
2018-08-18T16:16:58.887Z,9.23
2018-08-18T16:19:26.206Z,11.18
2018-08-18T16:21:53.431Z,12.23
2018-08-18T16:24:31.607Z,8.95
2018-08-18T16:26:59.875Z,10.78
2018-08-18T16:29:27.138Z,8.63
2018-08-18T16:32:26.611Z,8.83
2018-08-18T16:35:00.744Z,13.65
2018-08-18T16:37:28.310Z,9.03
2018-08-18T16:39:56.036Z,8.30
2018-08-18T16:42:23.255Z,9.28
2018-08-18T16:44:50.663Z,8.50
2018-08-18T16:47:18.063Z,7.83
2018-08-18T16:49:45.364Z,8.40
2018-08-18T16:52:13.545Z,8.23
2018-08-18T16:54:40.765Z,7.60
2018-08-18T16:57:08.052Z,8.48
2018-08-18T16:59:35.882Z,8.48
2018-08-18T17:02:03.888Z,10.75
2018-08-18T17:04:31.999Z,9.10
2018-08-18T17:07:00.048Z,8.63
2018-08-18T17:09:37.457Z,11.20
2018-08-18T17:12:16.037Z,8.35
2018-08-18T17:14:43.330Z,9.08
2018-08-18T17:17:11.480Z,8.50
2018-08-18T17:19:39.256Z,8.48
2018-08-18T17:22:07.519Z,9.10
2018-08-18T17:24:34.783Z,11.15
2018-08-18T17:27:02.136Z,10.23
2018-08-18T17:29:34.068Z,8.83
2018-08-18T17:32:02.057Z,8.38
2018-08-18T17:34:29.314Z,10.53
2018-08-18T17:36:56.583Z,10.82
2018-08-18T17:39:23.845Z,8.83
2018-08-18T17:41:51.124Z,14.95
2018-08-18T17:44:18.416Z,8.60
2018-08-18T17:46:51.621Z,9.10
2018-08-18T17:49:19.310Z,8.50
2018-08-18T17:51:56.995Z,8.28
2018-08-18T17:54:24.308Z,8.05
2018-08-18T17:56:51.679Z,8.23
2018-08-18T17:59:19.174Z,8.85
2018-08-18T18:02:00.378Z,10.60
2018-08-18T18:04:28.810Z,8.30
2018-08-18T18:06:57.195Z,8.43
2018-08-18T18:09:25.838Z,8.20
2018-08-18T18:11:53.242Z,7.83
2018-08-18T18:14:20.696Z,7.87
2018-08-18T18:16:48.109Z,7.83
2018-08-18T18:19:15.389Z,8.45
2018-08-18T18:21:43.512Z,8.28
2018-08-18T18:24:11.350Z,9.60
2018-08-18T18:26:39.153Z,8.60
2018-08-18T18:29:07.064Z,10.18
2018-08-18T18:31:34.307Z,7.17
2018-08-18T18:34:02.446Z,8.67
2018-08-18T18:36:30.344Z,8.83
2018-08-18T18:38:57.666Z,8.60
2018-08-18T18:41:25.180Z,10.08
2018-08-18T18:43:56.730Z,9.03
2018-08-18T18:46:24.025Z,8.23
2018-08-18T18:48:51.321Z,8.60
2018-08-18T18:51:18.575Z,8.77
2018-08-18T18:53:48.403Z,8.60
2018-08-18T18:56:15.667Z,8.07
2018-08-18T18:58:42.924Z,8.57
2018-08-18T19:01:10.201Z,9.17
2018-08-18T19:03:37.451Z,8.67
2018-08-18T19:06:04.744Z,8.20
2018-08-18T19:08:32.255Z,9.03
2018-08-18T19:11:02.225Z,8.17
2018-08-18T19:13:29.434Z,8.77
2018-08-18T19:15:56.759Z,10.87
2018-08-18T19:18:23.951Z,9.17
2018-08-18T19:20:51.209Z,10.60
2018-08-18T19:23:19.614Z,8.73
2018-08-18T19:25:48.047Z,9.10
2018-08-18T19:28:22.718Z,10.03
2018-08-18T19:30:49.974Z,9.10
2018-08-18T19:33:17.836Z,7.70
2018-08-18T19:35:50.054Z,8.70
2018-08-18T19:38:18.243Z,8.20
2018-08-18T19:40:46.785Z,8.73
2018-08-18T19:43:22.572Z,8.13
2018-08-18T19:45:50.283Z,9.07
2018-08-18T19:48:19.110Z,8.13
2018-08-18T19:50:53.667Z,7.67
2018-08-18T19:53:21.183Z,8.10
2018-08-18T19:55:49.272Z,9.00
2018-08-18T19:58:16.483Z,8.13
2018-08-18T20:00:43.755Z,7.90
2018-08-18T20:03:13.014Z,8.20
2018-08-18T20:05:40.308Z,7.87
2018-08-18T20:08:07.556Z,8.27
2018-08-18T20:10:38.528Z,8.33
2018-08-18T20:13:05.734Z,8.17
2018-08-18T20:15:32.940Z,9.17
2018-08-18T20:18:00.985Z,9.80
2018-08-18T20:20:28.183Z,7.83
2018-08-18T20:22:55.420Z,7.67
2018-08-18T20:25:22.662Z,8.80
2018-08-18T20:27:49.937Z,9.77
2018-08-18T20:30:17.146Z,7.90
2018-08-18T20:32:44.387Z,8.80
2018-08-18T20:35:11.636Z,8.00
2018-08-18T20:37:38.881Z,9.07
2018-08-18T20:40:07.800Z,10.70
2018-08-18T20:42:39.475Z,8.07
2018-08-18T20:45:09.139Z,7.77
2018-08-18T20:47:36.410Z,12.37
2018-08-18T20:50:05.383Z,8.23
2018-08-18T20:52:32.655Z,8.37
2018-08-18T20:55:00.293Z,11.83
2018-08-18T20:57:27.560Z,9.13
2018-08-18T20:59:54.772Z,9.87
2018-08-18T21:02:22.026Z,11.63
2018-08-18T21:04:55.645Z,8.70
2018-08-18T21:07:23.044Z,8.77
2018-08-18T21:09:50.286Z,9.33
2018-08-18T21:12:17.555Z,9.43
2018-08-18T21:14:44.791Z,9.83
2018-08-18T21:17:12.050Z,9.87
2018-08-18T21:19:39.254Z,10.27
2018-08-18T21:22:07.280Z,10.43
2018-08-18T21:24:34.509Z,8.80
2018-08-18T21:27:01.784Z,8.80
2018-08-18T21:29:29.013Z,9.13
2018-08-18T21:31:56.250Z,9.40
2018-08-18T21:34:23.470Z,9.40
2018-08-18T21:36:50.703Z,9.67
2018-08-18T21:39:17.947Z,10.03
2018-08-18T21:41:46.383Z,9.13
2018-08-18T21:44:14.325Z,8.77
2018-08-18T21:46:42.025Z,9.63
2018-08-18T21:49:09.963Z,9.47
2018-08-18T21:51:37.188Z,9.60
2018-08-18T21:54:04.479Z,8.93
2018-08-18T21:56:40.128Z,8.93
2018-08-18T21:59:09.010Z,9.60
2018-08-18T22:01:36.290Z,8.33
2018-08-18T22:04:03.934Z,8.93
2018-08-18T22:06:31.266Z,9.10
2018-08-18T22:09:15.652Z,9.33
2018-08-18T22:11:43.059Z,11.40
2018-08-18T22:14:13.533Z,8.97
2018-08-18T22:16:49.196Z,10.20
2018-08-18T22:19:18.909Z,8.93
2018-08-18T22:21:46.171Z,9.47
2018-08-18T22:24:13.410Z,8.97
2018-08-18T22:26:40.638Z,8.73
2018-08-18T22:29:07.889Z,8.77
2018-08-18T22:31:35.147Z,10.87
2018-08-18T22:34:03.632Z,9.77
2018-08-18T22:36:32.090Z,10.53
2018-08-18T22:38:59.764Z,9.27
2018-08-18T22:41:26.992Z,9.70
2018-08-18T22:43:54.895Z,10.90
2018-08-18T22:46:22.416Z,10.07
2018-08-18T22:48:49.697Z,9.80
2018-08-18T22:51:17.174Z,10.53
2018-08-18T22:53:46.570Z,11.37
2018-08-18T22:56:13.772Z,11.77
2018-08-18T22:58:50.947Z,11.23
2018-08-18T23:01:18.140Z,11.90
2018-08-18T23:03:45.490Z,12.60
2018-08-18T23:06:12.753Z,11.53
2018-08-18T23:08:39.989Z,11.40
2018-08-18T23:11:07.199Z,10.97
2018-08-18T23:13:34.426Z,11.40
2018-08-18T23:16:01.702Z,11.63
2018-08-18T23:18:28.963Z,11.27
2018-08-18T23:20:56.152Z,12.30
2018-08-18T23:23:23.392Z,13.03
2018-08-18T23:25:52.588Z,10.77
2018-08-18T23:28:19.799Z,12.30
2018-08-18T23:30:47.000Z,11.93
2018-08-18T23:33:14.246Z,11.23
2018-08-18T23:35:41.455Z,10.27
2018-08-18T23:38:08.732Z,12.07
2018-08-18T23:40:35.952Z,10.53
2018-08-18T23:43:03.300Z,11.83
2018-08-18T23:45:37.110Z,11.83
2018-08-18T23:48:05.670Z,12.50
2018-08-18T23:50:35.491Z,14.47
2018-08-18T23:53:05.258Z,13.90
2018-08-18T23:55:32.475Z,12.97
2018-08-18T23:58:00.574Z,12.83
